sensor_id;sensor_type;location;lat;lon;timestamp;P1;durP1;ratioP1;P2;durP2;ratioP2
71759;SDS011;59919;48.112;16.280;2024-01-06T00:01:11;89.38;;;56.30;;
71759;SDS011;59919;48.112;16.280;2024-01-06T00:03:48;90.15;;;58.38;;
71759;SDS011;59919;48.112;16.280;2024-01-06T00:06:25;88.25;;;58.40;;
71759;SDS011;59919;48.112;16.280;2024-01-06T00:08:58;97.45;;;61.72;;
71759;SDS011;59919;48.112;16.280;2024-01-06T00:11:29;89.88;;;59.42;;
71759;SDS011;59919;48.112;16.280;2024-01-06T00:14:06;81.95;;;54.88;;
71759;SDS011;59919;48.112;16.280;2024-01-06T00:16:37;86.20;;;52.65;;
71759;SDS011;59919;48.112;16.280;2024-01-06T00:19:11;87.60;;;55.85;;
71759;SDS011;59919;48.112;16.280;2024-01-06T00:21:44;88.85;;;55.80;;
71759;SDS011;59919;48.112;16.280;2024-01-06T00:24:26;80.95;;;54.08;;
71759;SDS011;59919;48.112;16.280;2024-01-06T00:27:00;82.88;;;54.08;;
71759;SDS011;59919;48.112;16.280;2024-01-06T00:29:34;86.13;;;55.22;;
71759;SDS011;59919;48.112;16.280;2024-01-06T00:32:08;83.40;;;53.75;;
71759;SDS011;59919;48.112;16.280;2024-01-06T00:34:43;81.13;;;51.83;;
71759;SDS011;59919;48.112;16.280;2024-01-06T00:37:18;79.32;;;49.88;;
71759;SDS011;59919;48.112;16.280;2024-01-06T00:39:49;81.07;;;50.83;;
71759;SDS011;59919;48.112;16.280;2024-01-06T00:42:20;86.93;;;55.28;;
71759;SDS011;59919;48.112;16.280;2024-01-06T00:44:54;84.93;;;53.53;;
71759;SDS011;59919;48.112;16.280;2024-01-06T00:47:25;74.45;;;48.08;;
71759;SDS011;59919;48.112;16.280;2024-01-06T00:49:58;79.63;;;49.53;;
71759;SDS011;59919;48.112;16.280;2024-01-06T00:52:35;71.60;;;44.75;;
71759;SDS011;59919;48.112;16.280;2024-01-06T00:55:08;73.43;;;48.28;;
71759;SDS011;59919;48.112;16.280;2024-01-06T00:57:41;68.30;;;44.15;;
71759;SDS011;59919;48.112;16.280;2024-01-06T01:00:26;77.43;;;49.47;;
71759;SDS011;59919;48.112;16.280;2024-01-06T01:02:57;67.28;;;44.88;;
71759;SDS011;59919;48.112;16.280;2024-01-06T01:05:33;81.53;;;50.45;;
71759;SDS011;59919;48.112;16.280;2024-01-06T01:08:07;75.53;;;49.35;;
71759;SDS011;59919;48.112;16.280;2024-01-06T01:10:38;63.67;;;40.95;;
71759;SDS011;59919;48.112;16.280;2024-01-06T01:13:09;69.95;;;43.63;;
71759;SDS011;59919;48.112;16.280;2024-01-06T01:15:42;68.68;;;43.10;;
71759;SDS011;59919;48.112;16.280;2024-01-06T01:18:18;61.28;;;38.85;;
71759;SDS011;59919;48.112;16.280;2024-01-06T01:20:49;72.65;;;44.90;;
71759;SDS011;59919;48.112;16.280;2024-01-06T01:23:20;64.97;;;42.03;;
71759;SDS011;59919;48.112;16.280;2024-01-06T01:25:53;62.58;;;40.90;;
71759;SDS011;59919;48.112;16.280;2024-01-06T01:28:30;64.80;;;40.92;;
71759;SDS011;59919;48.112;16.280;2024-01-06T01:31:06;72.88;;;46.47;;
71759;SDS011;59919;48.112;16.280;2024-01-06T01:33:40;66.50;;;42.97;;
71759;SDS011;59919;48.112;16.280;2024-01-06T01:36:12;68.43;;;44.25;;
71759;SDS011;59919;48.112;16.280;2024-01-06T01:38:44;70.13;;;44.30;;
71759;SDS011;59919;48.112;16.280;2024-01-06T01:41:24;66.80;;;42.22;;
71759;SDS011;59919;48.112;16.280;2024-01-06T01:43:58;61.92;;;37.78;;
71759;SDS011;59919;48.112;16.280;2024-01-06T01:46:31;63.38;;;40.17;;
71759;SDS011;59919;48.112;16.280;2024-01-06T01:49:06;58.72;;;37.92;;
71759;SDS011;59919;48.112;16.280;2024-01-06T01:51:37;59.95;;;37.67;;
71759;SDS011;59919;48.112;16.280;2024-01-06T01:54:11;70.30;;;41.53;;
71759;SDS011;59919;48.112;16.280;2024-01-06T01:56:50;66.13;;;41.28;;
71759;SDS011;59919;48.112;16.280;2024-01-06T01:59:24;63.03;;;38.05;;
71759;SDS011;59919;48.112;16.280;2024-01-06T02:02:02;54.97;;;35.90;;
71759;SDS011;59919;48.112;16.280;2024-01-06T02:04:38;63.15;;;37.58;;
71759;SDS011;59919;48.112;16.280;2024-01-06T02:07:12;54.92;;;35.80;;
71759;SDS011;59919;48.112;16.280;2024-01-06T02:09:44;48.28;;;31.48;;
71759;SDS011;59919;48.112;16.280;2024-01-06T02:12:18;59.97;;;38.90;;
71759;SDS011;59919;48.112;16.280;2024-01-06T02:14:51;54.72;;;34.50;;
71759;SDS011;59919;48.112;16.280;2024-01-06T02:17:22;55.78;;;35.60;;
71759;SDS011;59919;48.112;16.280;2024-01-06T02:19:53;53.03;;;35.20;;
71759;SDS011;59919;48.112;16.280;2024-01-06T02:22:24;54.60;;;34.90;;
71759;SDS011;59919;48.112;16.280;2024-01-06T02:24:55;47.97;;;33.58;;
71759;SDS011;59919;48.112;16.280;2024-01-06T02:27:29;54.05;;;36.15;;
71759;SDS011;59919;48.112;16.280;2024-01-06T02:30:04;49.88;;;34.20;;
71759;SDS011;59919;48.112;16.280;2024-01-06T02:32:39;53.97;;;33.72;;
71759;SDS011;59919;48.112;16.280;2024-01-06T02:35:10;51.90;;;34.97;;
71759;SDS011;59919;48.112;16.280;2024-01-06T02:37:45;54.80;;;35.47;;
71759;SDS011;59919;48.112;16.280;2024-01-06T02:40:17;49.65;;;32.92;;
71759;SDS011;59919;48.112;16.280;2024-01-06T02:42:51;49.00;;;31.10;;
71759;SDS011;59919;48.112;16.280;2024-01-06T02:45:24;54.42;;;34.40;;
71759;SDS011;59919;48.112;16.280;2024-01-06T02:47:56;49.63;;;32.30;;
71759;SDS011;59919;48.112;16.280;2024-01-06T02:50:30;47.63;;;30.73;;
71759;SDS011;59919;48.112;16.280;2024-01-06T02:53:03;44.80;;;29.05;;
71759;SDS011;59919;48.112;16.280;2024-01-06T02:55:36;44.95;;;30.15;;
71759;SDS011;59919;48.112;16.280;2024-01-06T02:58:07;44.92;;;29.67;;
71759;SDS011;59919;48.112;16.280;2024-01-06T03:00:38;44.10;;;28.95;;
71759;SDS011;59919;48.112;16.280;2024-01-06T03:03:09;39.35;;;27.05;;
71759;SDS011;59919;48.112;16.280;2024-01-06T03:05:42;45.63;;;29.83;;
71759;SDS011;59919;48.112;16.280;2024-01-06T03:08:15;46.47;;;30.15;;
71759;SDS011;59919;48.112;16.280;2024-01-06T03:10:47;43.83;;;29.48;;
71759;SDS011;59919;48.112;16.280;2024-01-06T03:13:18;42.47;;;28.05;;
71759;SDS011;59919;48.112;16.280;2024-01-06T03:15:51;44.63;;;30.10;;
71759;SDS011;59919;48.112;16.280;2024-01-06T03:18:25;43.00;;;27.52;;
71759;SDS011;59919;48.112;16.280;2024-01-06T03:20:56;43.45;;;28.30;;
71759;SDS011;59919;48.112;16.280;2024-01-06T03:23:29;41.38;;;27.08;;
71759;SDS011;59919;48.112;16.280;2024-01-06T03:26:04;42.35;;;26.83;;
71759;SDS011;59919;48.112;16.280;2024-01-06T03:28:36;41.33;;;27.97;;
71759;SDS011;59919;48.112;16.280;2024-01-06T03:31:10;38.58;;;26.70;;
71759;SDS011;59919;48.112;16.280;2024-01-06T03:33:42;40.55;;;26.65;;
71759;SDS011;59919;48.112;16.280;2024-01-06T03:36:14;44.13;;;29.10;;
71759;SDS011;59919;48.112;16.280;2024-01-06T03:38:48;44.00;;;28.35;;
71759;SDS011;59919;48.112;16.280;2024-01-06T03:41:21;48.05;;;31.10;;
71759;SDS011;59919;48.112;16.280;2024-01-06T03:43:52;42.30;;;26.25;;
71759;SDS011;59919;48.112;16.280;2024-01-06T03:46:28;41.38;;;27.13;;
71759;SDS011;59919;48.112;16.280;2024-01-06T03:49:04;43.63;;;27.77;;
71759;SDS011;59919;48.112;16.280;2024-01-06T03:51:35;40.67;;;25.10;;
71759;SDS011;59919;48.112;16.280;2024-01-06T03:54:06;41.35;;;26.92;;
71759;SDS011;59919;48.112;16.280;2024-01-06T03:56:38;42.40;;;27.80;;
71759;SDS011;59919;48.112;16.280;2024-01-06T03:59:11;38.22;;;26.48;;
71759;SDS011;59919;48.112;16.280;2024-01-06T04:01:43;35.00;;;23.80;;
71759;SDS011;59919;48.112;16.280;2024-01-06T04:04:15;38.10;;;24.77;;
71759;SDS011;59919;48.112;16.280;2024-01-06T04:06:48;35.83;;;22.27;;
71759;SDS011;59919;48.112;16.280;2024-01-06T04:09:21;35.15;;;23.55;;
71759;SDS011;59919;48.112;16.280;2024-01-06T04:11:55;36.50;;;25.30;;
71759;SDS011;59919;48.112;16.280;2024-01-06T04:14:31;33.15;;;22.42;;
71759;SDS011;59919;48.112;16.280;2024-01-06T04:17:07;33.50;;;23.13;;
71759;SDS011;59919;48.112;16.280;2024-01-06T04:19:39;37.35;;;23.80;;
71759;SDS011;59919;48.112;16.280;2024-01-06T04:22:10;31.40;;;21.77;;
71759;SDS011;59919;48.112;16.280;2024-01-06T04:24:41;38.95;;;25.50;;
71759;SDS011;59919;48.112;16.280;2024-01-06T04:27:12;38.00;;;25.48;;
71759;SDS011;59919;48.112;16.280;2024-01-06T04:29:46;34.55;;;22.15;;
71759;SDS011;59919;48.112;16.280;2024-01-06T04:32:17;31.55;;;21.63;;
71759;SDS011;59919;48.112;16.280;2024-01-06T04:34:51;33.75;;;23.90;;
71759;SDS011;59919;48.112;16.280;2024-01-06T04:37:23;30.52;;;21.25;;
71759;SDS011;59919;48.112;16.280;2024-01-06T04:39:57;26.63;;;19.65;;
71759;SDS011;59919;48.112;16.280;2024-01-06T04:42:33;33.83;;;23.35;;
71759;SDS011;59919;48.112;16.280;2024-01-06T04:45:07;28.75;;;19.20;;
71759;SDS011;59919;48.112;16.280;2024-01-06T04:47:41;28.10;;;20.23;;
71759;SDS011;59919;48.112;16.280;2024-01-06T04:50:17;29.98;;;20.10;;
71759;SDS011;59919;48.112;16.280;2024-01-06T04:52:49;30.65;;;21.08;;
71759;SDS011;59919;48.112;16.280;2024-01-06T04:55:20;28.35;;;19.52;;
71759;SDS011;59919;48.112;16.280;2024-01-06T04:57:51;29.48;;;20.58;;
71759;SDS011;59919;48.112;16.280;2024-01-06T05:00:32;32.95;;;22.08;;
71759;SDS011;59919;48.112;16.280;2024-01-06T05:03:06;28.75;;;19.60;;
71759;SDS011;59919;48.112;16.280;2024-01-06T05:05:40;28.58;;;19.80;;
71759;SDS011;59919;48.112;16.280;2024-01-06T05:08:11;28.60;;;18.58;;
71759;SDS011;59919;48.112;16.280;2024-01-06T05:10:42;25.85;;;17.75;;
71759;SDS011;59919;48.112;16.280;2024-01-06T05:13:13;26.63;;;17.73;;
71759;SDS011;59919;48.112;16.280;2024-01-06T05:15:46;23.45;;;17.02;;
71759;SDS011;59919;48.112;16.280;2024-01-06T05:18:21;25.38;;;17.30;;
71759;SDS011;59919;48.112;16.280;2024-01-06T05:20:55;26.08;;;17.92;;
71759;SDS011;59919;48.112;16.280;2024-01-06T05:23:26;21.27;;;15.95;;
71759;SDS011;59919;48.112;16.280;2024-01-06T05:25:57;21.35;;;16.20;;
71759;SDS011;59919;48.112;16.280;2024-01-06T05:28:31;21.75;;;16.27;;
71759;SDS011;59919;48.112;16.280;2024-01-06T05:31:02;23.10;;;16.02;;
71759;SDS011;59919;48.112;16.280;2024-01-06T05:33:33;21.83;;;15.57;;
71759;SDS011;59919;48.112;16.280;2024-01-06T05:36:06;25.40;;;17.70;;
71759;SDS011;59919;48.112;16.280;2024-01-06T05:38:40;22.48;;;15.15;;
71759;SDS011;59919;48.112;16.280;2024-01-06T05:41:14;23.33;;;15.82;;
71759;SDS011;59919;48.112;16.280;2024-01-06T05:43:47;22.92;;;15.95;;
71759;SDS011;59919;48.112;16.280;2024-01-06T05:46:22;25.42;;;17.30;;
71759;SDS011;59919;48.112;16.280;2024-01-06T05:48:54;22.55;;;15.52;;
71759;SDS011;59919;48.112;16.280;2024-01-06T05:51:31;21.83;;;15.10;;
71759;SDS011;59919;48.112;16.280;2024-01-06T05:56:39;20.35;;;15.02;;
71759;SDS011;59919;48.112;16.280;2024-01-06T05:59:15;21.67;;;14.43;;
71759;SDS011;59919;48.112;16.280;2024-01-06T06:01:49;19.33;;;13.90;;
71759;SDS011;59919;48.112;16.280;2024-01-06T06:04:21;22.25;;;15.50;;
71759;SDS011;59919;48.112;16.280;2024-01-06T06:06:54;17.92;;;13.43;;
71759;SDS011;59919;48.112;16.280;2024-01-06T06:09:28;18.92;;;13.70;;
71759;SDS011;59919;48.112;16.280;2024-01-06T06:12:00;18.52;;;14.00;;
71759;SDS011;59919;48.112;16.280;2024-01-06T06:14:31;18.42;;;13.40;;
71759;SDS011;59919;48.112;16.280;2024-01-06T06:17:02;20.52;;;14.75;;
71759;SDS011;59919;48.112;16.280;2024-01-06T06:19:33;18.15;;;12.27;;
71759;SDS011;59919;48.112;16.280;2024-01-06T06:22:04;19.05;;;12.93;;
71759;SDS011;59919;48.112;16.280;2024-01-06T06:24:38;19.02;;;13.38;;
71759;SDS011;59919;48.112;16.280;2024-01-06T06:27:12;17.20;;;12.65;;
71759;SDS011;59919;48.112;16.280;2024-01-06T06:29:49;17.90;;;12.98;;
71759;SDS011;59919;48.112;16.280;2024-01-06T06:32:23;17.38;;;12.70;;
71759;SDS011;59919;48.112;16.280;2024-01-06T06:34:57;17.38;;;12.23;;
71759;SDS011;59919;48.112;16.280;2024-01-06T06:37:28;16.13;;;11.27;;
71759;SDS011;59919;48.112;16.280;2024-01-06T06:40:01;16.75;;;12.50;;
71759;SDS011;59919;48.112;16.280;2024-01-06T06:42:33;15.65;;;11.63;;
71759;SDS011;59919;48.112;16.280;2024-01-06T06:45:10;17.48;;;12.70;;
71759;SDS011;59919;48.112;16.280;2024-01-06T06:47:43;15.05;;;11.35;;
71759;SDS011;59919;48.112;16.280;2024-01-06T06:50:15;16.40;;;11.75;;
71759;SDS011;59919;48.112;16.280;2024-01-06T06:52:47;17.23;;;12.02;;
71759;SDS011;59919;48.112;16.280;2024-01-06T06:55:23;15.45;;;11.15;;
71759;SDS011;59919;48.112;16.280;2024-01-06T06:57:54;14.68;;;11.93;;
71759;SDS011;59919;48.112;16.280;2024-01-06T07:00:27;17.55;;;12.43;;
71759;SDS011;59919;48.112;16.280;2024-01-06T07:03:00;15.77;;;11.73;;
71759;SDS011;59919;48.112;16.280;2024-01-06T07:05:34;14.02;;;10.20;;
71759;SDS011;59919;48.112;16.280;2024-01-06T07:08:05;12.32;;;9.98;;
71759;SDS011;59919;48.112;16.280;2024-01-06T07:10:37;14.98;;;11.50;;
71759;SDS011;59919;48.112;16.280;2024-01-06T07:15:49;14.05;;;10.48;;
71759;SDS011;59919;48.112;16.280;2024-01-06T07:18:24;14.52;;;10.48;;
71759;SDS011;59919;48.112;16.280;2024-01-06T07:20:59;13.50;;;10.15;;
71759;SDS011;59919;48.112;16.280;2024-01-06T07:23:30;12.63;;;9.57;;
71759;SDS011;59919;48.112;16.280;2024-01-06T07:26:07;13.23;;;9.73;;
71759;SDS011;59919;48.112;16.280;2024-01-06T07:28:41;13.27;;;10.07;;
71759;SDS011;59919;48.112;16.280;2024-01-06T07:31:12;12.57;;;9.52;;
71759;SDS011;59919;48.112;16.280;2024-01-06T07:33:45;14.50;;;10.52;;
71759;SDS011;59919;48.112;16.280;2024-01-06T07:36:16;13.55;;;9.90;;
71759;SDS011;59919;48.112;16.280;2024-01-06T07:38:53;13.35;;;10.02;;
71759;SDS011;59919;48.112;16.280;2024-01-06T07:41:24;12.75;;;9.63;;
71759;SDS011;59919;48.112;16.280;2024-01-06T07:43:58;13.63;;;10.30;;
71759;SDS011;59919;48.112;16.280;2024-01-06T07:46:29;12.93;;;9.70;;
71759;SDS011;59919;48.112;16.280;2024-01-06T07:49:00;12.10;;;9.15;;
71759;SDS011;59919;48.112;16.280;2024-01-06T07:51:31;12.35;;;9.02;;
71759;SDS011;59919;48.112;16.280;2024-01-06T07:54:02;14.25;;;10.00;;
71759;SDS011;59919;48.112;16.280;2024-01-06T07:56:36;12.27;;;9.00;;
71759;SDS011;59919;48.112;16.280;2024-01-06T07:59:11;15.77;;;8.30;;
71759;SDS011;59919;48.112;16.280;2024-01-06T08:01:43;11.65;;;9.18;;
71759;SDS011;59919;48.112;16.280;2024-01-06T08:04:14;12.27;;;8.93;;
71759;SDS011;59919;48.112;16.280;2024-01-06T08:06:45;14.80;;;9.35;;
71759;SDS011;59919;48.112;16.280;2024-01-06T08:09:17;16.08;;;8.73;;
71759;SDS011;59919;48.112;16.280;2024-01-06T08:11:48;12.30;;;8.23;;
71759;SDS011;59919;48.112;16.280;2024-01-06T08:14:21;11.73;;;9.20;;
71759;SDS011;59919;48.112;16.280;2024-01-06T08:16:52;10.98;;;8.55;;
71759;SDS011;59919;48.112;16.280;2024-01-06T08:19:25;13.90;;;8.25;;
71759;SDS011;59919;48.112;16.280;2024-01-06T08:22:01;14.95;;;8.77;;
71759;SDS011;59919;48.112;16.280;2024-01-06T08:24:32;13.43;;;7.45;;
71759;SDS011;59919;48.112;16.280;2024-01-06T08:27:04;18.05;;;8.15;;
71759;SDS011;59919;48.112;16.280;2024-01-06T08:29:35;11.60;;;7.22;;
71759;SDS011;59919;48.112;16.280;2024-01-06T08:32:06;12.82;;;6.75;;
71759;SDS011;59919;48.112;16.280;2024-01-06T08:34:40;14.95;;;7.75;;
71759;SDS011;59919;48.112;16.280;2024-01-06T08:37:11;13.50;;;6.70;;
71759;SDS011;59919;48.112;16.280;2024-01-06T08:39:43;13.73;;;7.00;;
71759;SDS011;59919;48.112;16.280;2024-01-06T08:42:18;9.70;;;6.65;;
71759;SDS011;59919;48.112;16.280;2024-01-06T08:44:49;7.53;;;6.45;;
71759;SDS011;59919;48.112;16.280;2024-01-06T08:47:22;13.57;;;6.80;;
71759;SDS011;59919;48.112;16.280;2024-01-06T08:49:54;11.70;;;6.60;;
71759;SDS011;59919;48.112;16.280;2024-01-06T08:52:25;9.30;;;6.15;;
71759;SDS011;59919;48.112;16.280;2024-01-06T08:54:56;8.80;;;6.30;;
71759;SDS011;59919;48.112;16.280;2024-01-06T08:57:29;8.52;;;5.60;;
71759;SDS011;59919;48.112;16.280;2024-01-06T09:00:10;8.77;;;6.18;;
71759;SDS011;59919;48.112;16.280;2024-01-06T09:02:44;9.85;;;5.35;;
71759;SDS011;59919;48.112;16.280;2024-01-06T09:05:15;10.55;;;6.13;;
71759;SDS011;59919;48.112;16.280;2024-01-06T09:07:47;8.48;;;6.25;;
71759;SDS011;59919;48.112;16.280;2024-01-06T09:10:20;9.27;;;6.03;;
71759;SDS011;59919;48.112;16.280;2024-01-06T09:12:52;11.80;;;5.55;;
71759;SDS011;59919;48.112;16.280;2024-01-06T09:15:24;9.68;;;5.85;;
71759;SDS011;59919;48.112;16.280;2024-01-06T09:17:57;11.30;;;6.20;;
71759;SDS011;59919;48.112;16.280;2024-01-06T09:20:31;9.70;;;6.18;;
71759;SDS011;59919;48.112;16.280;2024-01-06T09:23:05;11.90;;;6.13;;
71759;SDS011;59919;48.112;16.280;2024-01-06T09:25:43;8.00;;;5.53;;
71759;SDS011;59919;48.112;16.280;2024-01-06T09:28:19;13.18;;;7.28;;
71759;SDS011;59919;48.112;16.280;2024-01-06T09:30:52;9.88;;;6.85;;
71759;SDS011;59919;48.112;16.280;2024-01-06T09:33:25;9.98;;;6.80;;
71759;SDS011;59919;48.112;16.280;2024-01-06T09:38:56;9.98;;;7.28;;
71759;SDS011;59919;48.112;16.280;2024-01-06T09:41:28;11.65;;;7.18;;
71759;SDS011;59919;48.112;16.280;2024-01-06T09:43:59;16.02;;;9.23;;
71759;SDS011;59919;48.112;16.280;2024-01-06T09:46:33;10.65;;;7.50;;
71759;SDS011;59919;48.112;16.280;2024-01-06T09:49:11;12.05;;;8.50;;
71759;SDS011;59919;48.112;16.280;2024-01-06T09:51:44;19.85;;;10.65;;
71759;SDS011;59919;48.112;16.280;2024-01-06T09:54:22;14.95;;;10.50;;
71759;SDS011;59919;48.112;16.280;2024-01-06T09:56:57;16.38;;;10.55;;
71759;SDS011;59919;48.112;16.280;2024-01-06T09:59:28;16.13;;;10.27;;
71759;SDS011;59919;48.112;16.280;2024-01-06T10:02:05;16.80;;;11.30;;
71759;SDS011;59919;48.112;16.280;2024-01-06T10:04:36;19.77;;;12.38;;
71759;SDS011;59919;48.112;16.280;2024-01-06T10:07:07;20.42;;;12.25;;
71759;SDS011;59919;48.112;16.280;2024-01-06T10:09:46;27.30;;;15.27;;
71759;SDS011;59919;48.112;16.280;2024-01-06T10:12:17;24.27;;;14.63;;
71759;SDS011;59919;48.112;16.280;2024-01-06T10:14:48;25.88;;;15.75;;
71759;SDS011;59919;48.112;16.280;2024-01-06T10:17:19;26.30;;;16.60;;
71759;SDS011;59919;48.112;16.280;2024-01-06T10:19:50;25.52;;;16.58;;
71759;SDS011;59919;48.112;16.280;2024-01-06T10:22:23;30.02;;;17.55;;
71759;SDS011;59919;48.112;16.280;2024-01-06T10:24:55;31.83;;;18.42;;
71759;SDS011;59919;48.112;16.280;2024-01-06T10:27:28;33.83;;;19.95;;
71759;SDS011;59919;48.112;16.280;2024-01-06T10:30:01;30.90;;;18.48;;
71759;SDS011;59919;48.112;16.280;2024-01-06T10:32:33;38.10;;;20.58;;
71759;SDS011;59919;48.112;16.280;2024-01-06T10:35:04;37.42;;;22.25;;
71759;SDS011;59919;48.112;16.280;2024-01-06T10:37:41;36.88;;;22.52;;
71759;SDS011;59919;48.112;16.280;2024-01-06T10:40:16;43.03;;;24.60;;
71759;SDS011;59919;48.112;16.280;2024-01-06T10:42:47;41.60;;;25.98;;
71759;SDS011;59919;48.112;16.280;2024-01-06T10:45:18;37.72;;;22.55;;
71759;SDS011;59919;48.112;16.280;2024-01-06T10:47:50;40.00;;;24.58;;
71759;SDS011;59919;48.112;16.280;2024-01-06T10:50:21;45.13;;;27.10;;
71759;SDS011;59919;48.112;16.280;2024-01-06T10:52:55;44.28;;;27.35;;
71759;SDS011;59919;48.112;16.280;2024-01-06T10:55:30;50.83;;;27.63;;
71759;SDS011;59919;48.112;16.280;2024-01-06T10:58:05;45.22;;;27.02;;
71759;SDS011;59919;48.112;16.280;2024-01-06T11:00:38;45.20;;;29.38;;
71759;SDS011;59919;48.112;16.280;2024-01-06T11:03:09;51.72;;;29.25;;
71759;SDS011;59919;48.112;16.280;2024-01-06T11:05:41;63.63;;;28.98;;
71759;SDS011;59919;48.112;16.280;2024-01-06T11:08:17;56.20;;;32.55;;
71759;SDS011;59919;48.112;16.280;2024-01-06T11:10:49;58.80;;;33.65;;
71759;SDS011;59919;48.112;16.280;2024-01-06T11:13:23;61.47;;;32.72;;
71759;SDS011;59919;48.112;16.280;2024-01-06T11:21:15;62.20;;;35.25;;
71759;SDS011;59919;48.112;16.280;2024-01-06T11:26:44;58.38;;;32.70;;
71759;SDS011;59919;48.112;16.280;2024-01-06T11:29:20;59.42;;;33.42;;
71759;SDS011;59919;48.112;16.280;2024-01-06T11:34:54;63.17;;;34.65;;
71759;SDS011;59919;48.112;16.280;2024-01-06T11:40:25;52.13;;;32.22;;
71759;SDS011;59919;48.112;16.280;2024-01-06T11:45:38;51.75;;;31.08;;
71759;SDS011;59919;48.112;16.280;2024-01-06T11:48:14;57.17;;;32.50;;
71759;SDS011;59919;48.112;16.280;2024-01-06T11:50:51;52.55;;;31.00;;
71759;SDS011;59919;48.112;16.280;2024-01-06T11:53:22;56.03;;;30.25;;
71759;SDS011;59919;48.112;16.280;2024-01-06T11:56:00;54.47;;;30.48;;
71759;SDS011;59919;48.112;16.280;2024-01-06T11:58:31;52.47;;;30.30;;
71759;SDS011;59919;48.112;16.280;2024-01-06T12:01:04;53.22;;;30.42;;
71759;SDS011;59919;48.112;16.280;2024-01-06T12:03:38;49.60;;;28.40;;
71759;SDS011;59919;48.112;16.280;2024-01-06T12:06:09;52.95;;;30.00;;
71759;SDS011;59919;48.112;16.280;2024-01-06T12:08:40;48.20;;;30.70;;
71759;SDS011;59919;48.112;16.280;2024-01-06T12:11:16;49.28;;;29.05;;
71759;SDS011;59919;48.112;16.280;2024-01-06T12:13:48;48.05;;;29.52;;
71759;SDS011;59919;48.112;16.280;2024-01-06T12:16:20;46.30;;;29.00;;
71759;SDS011;59919;48.112;16.280;2024-01-06T12:18:52;52.42;;;31.60;;
71759;SDS011;59919;48.112;16.280;2024-01-06T12:21:34;53.10;;;30.15;;
71759;SDS011;59919;48.112;16.280;2024-01-06T12:24:18;50.78;;;31.08;;
71759;SDS011;59919;48.112;16.280;2024-01-06T12:26:52;49.67;;;29.65;;
71759;SDS011;59919;48.112;16.280;2024-01-06T12:29:28;49.35;;;29.88;;
71759;SDS011;59919;48.112;16.280;2024-01-06T12:32:02;50.63;;;29.70;;
71759;SDS011;59919;48.112;16.280;2024-01-06T12:34:36;47.10;;;29.73;;
71759;SDS011;59919;48.112;16.280;2024-01-06T12:37:10;46.40;;;28.35;;
71759;SDS011;59919;48.112;16.280;2024-01-06T12:39:46;51.22;;;30.20;;
71759;SDS011;59919;48.112;16.280;2024-01-06T12:42:20;48.95;;;28.83;;
71759;SDS011;59919;48.112;16.280;2024-01-06T12:44:54;51.53;;;30.67;;
71759;SDS011;59919;48.112;16.280;2024-01-06T12:47:25;48.42;;;29.50;;
71759;SDS011;59919;48.112;16.280;2024-01-06T12:50:02;52.00;;;31.77;;
71759;SDS011;59919;48.112;16.280;2024-01-06T12:52:38;44.80;;;27.75;;
71759;SDS011;59919;48.112;16.280;2024-01-06T12:55:10;47.40;;;29.75;;
71759;SDS011;59919;48.112;16.280;2024-01-06T12:57:44;45.45;;;28.38;;
71759;SDS011;59919;48.112;16.280;2024-01-06T13:00:18;49.05;;;30.05;;
71759;SDS011;59919;48.112;16.280;2024-01-06T13:02:49;49.72;;;28.20;;
71759;SDS011;59919;48.112;16.280;2024-01-06T13:05:25;48.17;;;29.52;;
71759;SDS011;59919;48.112;16.280;2024-01-06T13:08:07;46.67;;;29.27;;
71759;SDS011;59919;48.112;16.280;2024-01-06T13:10:38;49.40;;;29.48;;
71759;SDS011;59919;48.112;16.280;2024-01-06T13:13:14;45.20;;;28.52;;
71759;SDS011;59919;48.112;16.280;2024-01-06T13:15:46;47.72;;;30.52;;
71759;SDS011;59919;48.112;16.280;2024-01-06T13:18:22;47.25;;;28.50;;
71759;SDS011;59919;48.112;16.280;2024-01-06T13:20:54;48.58;;;29.25;;
71759;SDS011;59919;48.112;16.280;2024-01-06T13:23:25;48.17;;;29.38;;
71759;SDS011;59919;48.112;16.280;2024-01-06T13:25:59;43.03;;;27.55;;
71759;SDS011;59919;48.112;16.280;2024-01-06T13:28:30;51.65;;;30.92;;
71759;SDS011;59919;48.112;16.280;2024-01-06T13:31:06;49.63;;;30.23;;
71759;SDS011;59919;48.112;16.280;2024-01-06T13:33:37;49.90;;;31.17;;
71759;SDS011;59919;48.112;16.280;2024-01-06T13:36:11;51.75;;;29.63;;
71759;SDS011;59919;48.112;16.280;2024-01-06T13:38:42;50.50;;;30.50;;
71759;SDS011;59919;48.112;16.280;2024-01-06T13:41:15;44.58;;;29.40;;
71759;SDS011;59919;48.112;16.280;2024-01-06T13:43:46;48.78;;;29.33;;
71759;SDS011;59919;48.112;16.280;2024-01-06T13:46:30;45.13;;;29.35;;
71759;SDS011;59919;48.112;16.280;2024-01-06T13:49:05;46.92;;;29.23;;
71759;SDS011;59919;48.112;16.280;2024-01-06T13:51:39;52.70;;;30.58;;
71759;SDS011;59919;48.112;16.280;2024-01-06T13:54:11;48.78;;;29.38;;
71759;SDS011;59919;48.112;16.280;2024-01-06T13:56:47;51.38;;;30.83;;
71759;SDS011;59919;48.112;16.280;2024-01-06T13:59:25;45.63;;;28.40;;
71759;SDS011;59919;48.112;16.280;2024-01-06T14:02:01;51.97;;;32.47;;
71759;SDS011;59919;48.112;16.280;2024-01-06T14:04:32;43.85;;;29.60;;
71759;SDS011;59919;48.112;16.280;2024-01-06T14:07:08;49.28;;;31.30;;
71759;SDS011;59919;48.112;16.280;2024-01-06T14:09:41;45.90;;;28.88;;
71759;SDS011;59919;48.112;16.280;2024-01-06T14:12:17;49.88;;;30.83;;
71759;SDS011;59919;48.112;16.280;2024-01-06T14:14:48;48.70;;;30.00;;
71759;SDS011;59919;48.112;16.280;2024-01-06T14:17:24;48.40;;;30.30;;
71759;SDS011;59919;48.112;16.280;2024-01-06T14:19:58;49.92;;;30.13;;
71759;SDS011;59919;48.112;16.280;2024-01-06T14:22:32;48.55;;;30.98;;
71759;SDS011;59919;48.112;16.280;2024-01-06T14:25:04;44.67;;;29.42;;
71759;SDS011;59919;48.112;16.280;2024-01-06T14:27:36;49.97;;;32.38;;
71759;SDS011;59919;48.112;16.280;2024-01-06T14:30:08;48.65;;;29.80;;
71759;SDS011;59919;48.112;16.280;2024-01-06T14:32:40;56.90;;;33.28;;
71759;SDS011;59919;48.112;16.280;2024-01-06T14:35:11;51.70;;;32.17;;
71759;SDS011;59919;48.112;16.280;2024-01-06T14:37:44;52.45;;;31.67;;
71759;SDS011;59919;48.112;16.280;2024-01-06T14:40:25;52.75;;;33.42;;
71759;SDS011;59919;48.112;16.280;2024-01-06T14:42:58;49.63;;;30.65;;
71759;SDS011;59919;48.112;16.280;2024-01-06T14:45:34;43.75;;;28.52;;
71759;SDS011;59919;48.112;16.280;2024-01-06T14:48:08;51.90;;;29.92;;
71759;SDS011;59919;48.112;16.280;2024-01-06T14:50:41;42.42;;;26.80;;
71759;SDS011;59919;48.112;16.280;2024-01-06T14:53:12;50.83;;;30.33;;
71759;SDS011;59919;48.112;16.280;2024-01-06T14:55:43;47.65;;;31.17;;
71759;SDS011;59919;48.112;16.280;2024-01-06T14:58:14;51.58;;;31.27;;
71759;SDS011;59919;48.112;16.280;2024-01-06T15:00:45;51.92;;;32.00;;
71759;SDS011;59919;48.112;16.280;2024-01-06T15:03:21;51.53;;;31.90;;
71759;SDS011;59919;48.112;16.280;2024-01-06T15:05:56;51.25;;;33.22;;
71759;SDS011;59919;48.112;16.280;2024-01-06T15:08:27;46.65;;;32.08;;
71759;SDS011;59919;48.112;16.280;2024-01-06T15:10:59;50.05;;;31.73;;